sensor_id;sensor_type;location;lat;lon;timestamp;P1;durP1;ratioP1;P2;durP2;ratioP2
78581;SDS011;67878;46.242;5.974;2023-09-19T00:00:16;1.45;;;0.90;;
78581;SDS011;67878;46.242;5.974;2023-09-19T00:02:44;1.52;;;1.10;;
78581;SDS011;67878;46.242;5.974;2023-09-19T00:05:12;1.15;;;0.88;;
78581;SDS011;67878;46.242;5.974;2023-09-19T00:07:37;1.63;;;0.90;;
78581;SDS011;67878;46.242;5.974;2023-09-19T00:10:03;2.45;;;0.95;;
78581;SDS011;67878;46.242;5.974;2023-09-19T00:12:29;1.70;;;1.10;;
78581;SDS011;67878;46.242;5.974;2023-09-19T00:14:55;2.63;;;1.10;;
78581;SDS011;67878;46.242;5.974;2023-09-19T00:17:21;2.72;;;1.08;;
78581;SDS011;67878;46.242;5.974;2023-09-19T00:19:47;1.50;;;0.95;;
78581;SDS011;67878;46.242;5.974;2023-09-19T00:22:16;1.67;;;1.00;;
78581;SDS011;67878;46.242;5.974;2023-09-19T00:24:42;1.27;;;1.00;;
78581;SDS011;67878;46.242;5.974;2023-09-19T00:27:07;1.55;;;1.00;;
78581;SDS011;67878;46.242;5.974;2023-09-19T00:29:33;1.25;;;1.00;;
78581;SDS011;67878;46.242;5.974;2023-09-19T00:31:58;1.42;;;1.05;;
78581;SDS011;67878;46.242;5.974;2023-09-19T00:34:24;1.63;;;1.00;;
78581;SDS011;67878;46.242;5.974;2023-09-19T00:36:50;2.65;;;0.98;;
78581;SDS011;67878;46.242;5.974;2023-09-19T00:39:18;1.45;;;1.00;;
78581;SDS011;67878;46.242;5.974;2023-09-19T00:41:45;1.42;;;0.88;;
78581;SDS011;67878;46.242;5.974;2023-09-19T00:44:10;1.75;;;1.00;;
78581;SDS011;67878;46.242;5.974;2023-09-19T00:46:37;1.10;;;0.80;;
78581;SDS011;67878;46.242;5.974;2023-09-19T00:49:02;1.65;;;0.90;;
78581;SDS011;67878;46.242;5.974;2023-09-19T00:51:28;2.15;;;0.90;;
78581;SDS011;67878;46.242;5.974;2023-09-19T00:53:54;1.40;;;0.90;;
78581;SDS011;67878;46.242;5.974;2023-09-19T00:56:20;1.42;;;1.00;;
78581;SDS011;67878;46.242;5.974;2023-09-19T00:58:46;1.88;;;0.75;;
78581;SDS011;67878;46.242;5.974;2023-09-19T01:01:15;1.45;;;0.90;;
78581;SDS011;67878;46.242;5.974;2023-09-19T01:03:42;1.25;;;0.70;;
78581;SDS011;67878;46.242;5.974;2023-09-19T01:06:07;1.30;;;0.77;;
78581;SDS011;67878;46.242;5.974;2023-09-19T01:08:33;1.20;;;0.80;;
78581;SDS011;67878;46.242;5.974;2023-09-19T01:14:12;2.00;;;0.90;;
78581;SDS011;67878;46.242;5.974;2023-09-19T01:16:56;1.20;;;0.80;;
78581;SDS011;67878;46.242;5.974;2023-09-19T01:28:23;1.90;;;1.13;;
78581;SDS011;67878;46.242;5.974;2023-09-19T01:30:51;1.25;;;0.90;;
78581;SDS011;67878;46.242;5.974;2023-09-19T01:33:23;1.30;;;0.90;;
78581;SDS011;67878;46.242;5.974;2023-09-19T01:35:48;1.60;;;0.85;;
78581;SDS011;67878;46.242;5.974;2023-09-19T01:38:15;1.20;;;0.68;;
78581;SDS011;67878;46.242;5.974;2023-09-19T01:40:41;1.33;;;0.75;;
78581;SDS011;67878;46.242;5.974;2023-09-19T01:43:11;0.77;;;0.68;;
78581;SDS011;67878;46.242;5.974;2023-09-19T01:48:57;1.92;;;0.82;;
78581;SDS011;67878;46.242;5.974;2023-09-19T01:51:43;2.35;;;0.90;;
78581;SDS011;67878;46.242;5.974;2023-09-19T01:54:18;1.00;;;0.73;;
78581;SDS011;67878;46.242;5.974;2023-09-19T01:57:04;1.42;;;0.70;;
78581;SDS011;67878;46.242;5.974;2023-09-19T01:59:50;3.00;;;0.77;;
78581;SDS011;67878;46.242;5.974;2023-09-19T02:02:20;1.10;;;0.88;;
78581;SDS011;67878;46.242;5.974;2023-09-19T02:04:48;2.58;;;0.90;;
78581;SDS011;67878;46.242;5.974;2023-09-19T02:07:14;1.35;;;0.73;;
78581;SDS011;67878;46.242;5.974;2023-09-19T02:09:40;1.63;;;0.70;;
78581;SDS011;67878;46.242;5.974;2023-09-19T02:12:08;1.13;;;0.60;;
78581;SDS011;67878;46.242;5.974;2023-09-19T02:14:34;1.40;;;0.80;;
78581;SDS011;67878;46.242;5.974;2023-09-19T02:17:01;2.75;;;0.82;;
78581;SDS011;67878;46.242;5.974;2023-09-19T02:19:30;3.63;;;0.70;;
78581;SDS011;67878;46.242;5.974;2023-09-19T02:21:57;3.35;;;0.90;;
78581;SDS011;67878;46.242;5.974;2023-09-19T02:24:23;1.00;;;0.60;;
78581;SDS011;67878;46.242;5.974;2023-09-19T02:26:49;0.88;;;0.57;;
78581;SDS011;67878;46.242;5.974;2023-09-19T02:29:14;0.82;;;0.60;;
78581;SDS011;67878;46.242;5.974;2023-09-19T02:31:40;1.02;;;0.70;;
78581;SDS011;67878;46.242;5.974;2023-09-19T02:34:05;0.98;;;0.70;;
78581;SDS011;67878;46.242;5.974;2023-09-19T02:36:32;1.00;;;0.82;;
78581;SDS011;67878;46.242;5.974;2023-09-19T02:38:57;1.23;;;0.82;;
78581;SDS011;67878;46.242;5.974;2023-09-19T02:41:22;2.55;;;0.63;;
78581;SDS011;67878;46.242;5.974;2023-09-19T02:43:48;2.58;;;0.88;;
78581;SDS011;67878;46.242;5.974;2023-09-19T02:46:13;2.05;;;0.60;;
78581;SDS011;67878;46.242;5.974;2023-09-19T02:48:39;1.58;;;0.75;;
78581;SDS011;67878;46.242;5.974;2023-09-19T02:51:04;1.70;;;0.60;;
78581;SDS011;67878;46.242;5.974;2023-09-19T02:53:30;1.90;;;0.80;;
78581;SDS011;67878;46.242;5.974;2023-09-19T02:55:57;2.80;;;0.70;;
78581;SDS011;67878;46.242;5.974;2023-09-19T02:58:22;1.92;;;0.90;;
78581;SDS011;67878;46.242;5.974;2023-09-19T03:00:50;1.60;;;0.70;;
78581;SDS011;67878;46.242;5.974;2023-09-19T03:03:16;1.05;;;0.80;;
78581;SDS011;67878;46.242;5.974;2023-09-19T03:05:42;1.55;;;0.57;;
78581;SDS011;67878;46.242;5.974;2023-09-19T03:08:12;0.90;;;0.70;;
78581;SDS011;67878;46.242;5.974;2023-09-19T03:10:40;1.20;;;0.57;;
78581;SDS011;67878;46.242;5.974;2023-09-19T03:13:05;0.68;;;0.47;;
78581;SDS011;67878;46.242;5.974;2023-09-19T03:15:34;1.75;;;0.77;;
78581;SDS011;67878;46.242;5.974;2023-09-19T03:18:03;1.77;;;0.50;;
78581;SDS011;67878;46.242;5.974;2023-09-19T03:20:29;0.88;;;0.50;;
78581;SDS011;67878;46.242;5.974;2023-09-19T03:22:55;1.27;;;0.70;;
78581;SDS011;67878;46.242;5.974;2023-09-19T03:25:21;1.50;;;0.70;;
78581;SDS011;67878;46.242;5.974;2023-09-19T03:27:48;1.00;;;0.68;;
78581;SDS011;67878;46.242;5.974;2023-09-19T03:30:13;1.15;;;0.80;;
78581;SDS011;67878;46.242;5.974;2023-09-19T03:32:49;0.80;;;0.63;;
78581;SDS011;67878;46.242;5.974;2023-09-19T03:35:15;1.10;;;0.65;;
78581;SDS011;67878;46.242;5.974;2023-09-19T03:37:42;0.50;;;0.50;;
78581;SDS011;67878;46.242;5.974;2023-09-19T03:40:11;0.90;;;0.47;;
78581;SDS011;67878;46.242;5.974;2023-09-19T03:42:40;1.35;;;0.55;;
78581;SDS011;67878;46.242;5.974;2023-09-19T03:45:09;1.67;;;0.65;;
78581;SDS011;67878;46.242;5.974;2023-09-19T03:47:40;0.90;;;0.65;;
78581;SDS011;67878;46.242;5.974;2023-09-19T03:50:06;0.95;;;0.60;;
78581;SDS011;67878;46.242;5.974;2023-09-19T03:55:05;0.75;;;0.70;;
78581;SDS011;67878;46.242;5.974;2023-09-19T03:57:31;0.73;;;0.60;;
78581;SDS011;67878;46.242;5.974;2023-09-19T03:59:57;2.03;;;0.57;;
78581;SDS011;67878;46.242;5.974;2023-09-19T04:02:22;0.68;;;0.50;;
78581;SDS011;67878;46.242;5.974;2023-09-19T04:04:49;2.45;;;0.60;;
78581;SDS011;67878;46.242;5.974;2023-09-19T04:07:15;1.15;;;0.70;;
78581;SDS011;67878;46.242;5.974;2023-09-19T04:09:40;1.27;;;0.50;;
78581;SDS011;67878;46.242;5.974;2023-09-19T04:12:06;1.90;;;0.80;;
78581;SDS011;67878;46.242;5.974;2023-09-19T04:14:33;1.02;;;0.70;;
78581;SDS011;67878;46.242;5.974;2023-09-19T04:16:59;0.95;;;0.60;;
78581;SDS011;67878;46.242;5.974;2023-09-19T04:19:25;1.05;;;0.65;;
78581;SDS011;67878;46.242;5.974;2023-09-19T04:21:51;1.00;;;0.60;;
78581;SDS011;67878;46.242;5.974;2023-09-19T04:24:16;0.85;;;0.50;;
78581;SDS011;67878;46.242;5.974;2023-09-19T04:26:44;1.80;;;0.60;;
78581;SDS011;67878;46.242;5.974;2023-09-19T04:29:10;1.40;;;0.50;;
78581;SDS011;67878;46.242;5.974;2023-09-19T04:31:38;0.98;;;0.60;;
78581;SDS011;67878;46.242;5.974;2023-09-19T04:34:08;1.38;;;0.80;;
78581;SDS011;67878;46.242;5.974;2023-09-19T04:39:02;1.85;;;0.80;;
78581;SDS011;67878;46.242;5.974;2023-09-19T04:41:30;1.52;;;0.70;;
78581;SDS011;67878;46.242;5.974;2023-09-19T04:43:55;1.30;;;0.77;;
78581;SDS011;67878;46.242;5.974;2023-09-19T04:46:20;1.45;;;0.80;;
78581;SDS011;67878;46.242;5.974;2023-09-19T04:48:46;1.30;;;0.45;;
78581;SDS011;67878;46.242;5.974;2023-09-19T04:51:11;1.50;;;0.70;;
78581;SDS011;67878;46.242;5.974;2023-09-19T04:53:38;1.73;;;0.47;;
78581;SDS011;67878;46.242;5.974;2023-09-19T04:56:04;1.67;;;0.80;;
78581;SDS011;67878;46.242;5.974;2023-09-19T04:58:31;1.83;;;0.60;;
78581;SDS011;67878;46.242;5.974;2023-09-19T05:00:57;1.40;;;0.60;;
78581;SDS011;67878;46.242;5.974;2023-09-19T05:03:22;1.05;;;0.52;;
78581;SDS011;67878;46.242;5.974;2023-09-19T05:05:47;1.17;;;0.68;;
78581;SDS011;67878;46.242;5.974;2023-09-19T05:08:13;2.00;;;0.57;;
78581;SDS011;67878;46.242;5.974;2023-09-19T05:10:40;0.90;;;0.45;;
78581;SDS011;67878;46.242;5.974;2023-09-19T05:13:05;1.02;;;0.50;;
78581;SDS011;67878;46.242;5.974;2023-09-19T05:15:32;1.30;;;0.70;;
78581;SDS011;67878;46.242;5.974;2023-09-19T05:17:58;0.90;;;0.60;;
78581;SDS011;67878;46.242;5.974;2023-09-19T05:20:23;0.70;;;0.40;;
78581;SDS011;67878;46.242;5.974;2023-09-19T05:23:06;0.77;;;0.50;;
78581;SDS011;67878;46.242;5.974;2023-09-19T05:25:39;0.82;;;0.45;;
78581;SDS011;67878;46.242;5.974;2023-09-19T05:28:08;1.25;;;0.68;;
78581;SDS011;67878;46.242;5.974;2023-09-19T05:30:36;2.20;;;0.70;;
78581;SDS011;67878;46.242;5.974;2023-09-19T05:33:03;1.30;;;0.52;;
78581;SDS011;67878;46.242;5.974;2023-09-19T05:35:30;0.70;;;0.45;;
78581;SDS011;67878;46.242;5.974;2023-09-19T05:37:57;1.63;;;0.52;;
78581;SDS011;67878;46.242;5.974;2023-09-19T05:40:23;1.08;;;0.60;;
78581;SDS011;67878;46.242;5.974;2023-09-19T05:42:49;1.00;;;0.50;;
78581;SDS011;67878;46.242;5.974;2023-09-19T05:45:18;0.88;;;0.55;;
78581;SDS011;67878;46.242;5.974;2023-09-19T05:47:47;1.42;;;0.50;;
78581;SDS011;67878;46.242;5.974;2023-09-19T05:50:14;0.93;;;0.57;;
78581;SDS011;67878;46.242;5.974;2023-09-19T05:52:41;1.65;;;0.60;;
78581;SDS011;67878;46.242;5.974;2023-09-19T05:55:08;1.92;;;0.75;;
78581;SDS011;67878;46.242;5.974;2023-09-19T05:57:37;2.33;;;0.63;;
78581;SDS011;67878;46.242;5.974;2023-09-19T06:00:07;2.00;;;0.60;;
78581;SDS011;67878;46.242;5.974;2023-09-19T06:02:35;1.63;;;0.90;;
78581;SDS011;67878;46.242;5.974;2023-09-19T06:05:01;2.35;;;0.60;;
78581;SDS011;67878;46.242;5.974;2023-09-19T06:07:27;0.80;;;0.50;;
78581;SDS011;67878;46.242;5.974;2023-09-19T06:10:07;1.67;;;0.57;;
78581;SDS011;67878;46.242;5.974;2023-09-19T06:12:43;1.30;;;0.57;;
78581;SDS011;67878;46.242;5.974;2023-09-19T06:15:09;1.85;;;0.57;;
78581;SDS011;67878;46.242;5.974;2023-09-19T06:17:40;1.10;;;0.63;;
78581;SDS011;67878;46.242;5.974;2023-09-19T06:20:11;3.75;;;0.80;;
78581;SDS011;67878;46.242;5.974;2023-09-19T06:22:43;1.00;;;0.50;;
78581;SDS011;67878;46.242;5.974;2023-09-19T06:25:10;1.55;;;0.40;;
78581;SDS011;67878;46.242;5.974;2023-09-19T06:27:39;1.73;;;0.70;;
78581;SDS011;67878;46.242;5.974;2023-09-19T06:30:09;1.80;;;0.77;;
78581;SDS011;67878;46.242;5.974;2023-09-19T06:32:36;3.38;;;1.45;;
78581;SDS011;67878;46.242;5.974;2023-09-19T06:35:02;2.25;;;1.02;;
78581;SDS011;67878;46.242;5.974;2023-09-19T06:37:28;2.63;;;0.77;;
78581;SDS011;67878;46.242;5.974;2023-09-19T06:39:54;4.25;;;0.80;;
78581;SDS011;67878;46.242;5.974;2023-09-19T06:42:19;3.38;;;0.93;;
78581;SDS011;67878;46.242;5.974;2023-09-19T06:44:45;6.38;;;1.42;;
78581;SDS011;67878;46.242;5.974;2023-09-19T06:47:11;3.05;;;1.33;;
78581;SDS011;67878;46.242;5.974;2023-09-19T06:49:37;4.60;;;1.70;;
78581;SDS011;67878;46.242;5.974;2023-09-19T06:52:02;3.85;;;1.48;;
78581;SDS011;67878;46.242;5.974;2023-09-19T06:54:28;4.97;;;1.23;;
78581;SDS011;67878;46.242;5.974;2023-09-19T06:57:00;5.82;;;1.20;;
78581;SDS011;67878;46.242;5.974;2023-09-19T06:59:25;3.10;;;1.00;;
78581;SDS011;67878;46.242;5.974;2023-09-19T07:01:51;1.60;;;1.10;;
78581;SDS011;67878;46.242;5.974;2023-09-19T07:04:17;2.47;;;1.10;;
78581;SDS011;67878;46.242;5.974;2023-09-19T07:06:49;3.30;;;1.20;;
78581;SDS011;67878;46.242;5.974;2023-09-19T07:09:15;3.20;;;1.00;;
78581;SDS011;67878;46.242;5.974;2023-09-19T07:11:41;2.95;;;1.15;;
78581;SDS011;67878;46.242;5.974;2023-09-19T07:14:07;1.45;;;1.00;;
78581;SDS011;67878;46.242;5.974;2023-09-19T07:16:36;3.10;;;1.15;;
78581;SDS011;67878;46.242;5.974;2023-09-19T07:19:07;2.10;;;1.10;;
78581;SDS011;67878;46.242;5.974;2023-09-19T07:21:33;3.30;;;1.08;;
78581;SDS011;67878;46.242;5.974;2023-09-19T07:24:00;2.97;;;0.90;;
78581;SDS011;67878;46.242;5.974;2023-09-19T07:26:28;1.67;;;0.95;;
78581;SDS011;67878;46.242;5.974;2023-09-19T07:28:53;3.70;;;1.02;;
78581;SDS011;67878;46.242;5.974;2023-09-19T07:31:19;3.13;;;1.80;;
78581;SDS011;67878;46.242;5.974;2023-09-19T07:33:45;7.10;;;2.50;;
78581;SDS011;67878;46.242;5.974;2023-09-19T07:36:10;2.72;;;1.35;;
78581;SDS011;67878;46.242;5.974;2023-09-19T07:38:40;4.28;;;1.30;;
78581;SDS011;67878;46.242;5.974;2023-09-19T07:41:06;2.65;;;1.27;;
78581;SDS011;67878;46.242;5.974;2023-09-19T07:43:33;5.25;;;1.27;;
78581;SDS011;67878;46.242;5.974;2023-09-19T07:46:02;2.88;;;1.15;;
78581;SDS011;67878;46.242;5.974;2023-09-19T07:48:36;3.08;;;1.33;;
78581;SDS011;67878;46.242;5.974;2023-09-19T07:51:05;6.75;;;1.50;;
78581;SDS011;67878;46.242;5.974;2023-09-19T07:53:34;5.22;;;1.05;;
78581;SDS011;67878;46.242;5.974;2023-09-19T07:56:02;1.70;;;1.20;;
78581;SDS011;67878;46.242;5.974;2023-09-19T07:58:32;2.17;;;1.00;;
78581;SDS011;67878;46.242;5.974;2023-09-19T08:03:32;2.90;;;0.98;;
78581;SDS011;67878;46.242;5.974;2023-09-19T08:05:58;2.63;;;1.10;;
78581;SDS011;67878;46.242;5.974;2023-09-19T08:08:23;2.63;;;1.20;;
78581;SDS011;67878;46.242;5.974;2023-09-19T08:10:55;2.85;;;1.20;;
78581;SDS011;67878;46.242;5.974;2023-09-19T08:13:22;2.47;;;1.52;;
78581;SDS011;67878;46.242;5.974;2023-09-19T08:15:48;3.83;;;1.38;;
78581;SDS011;67878;46.242;5.974;2023-09-19T08:18:14;3.10;;;1.50;;
78581;SDS011;67878;46.242;5.974;2023-09-19T08:20:40;1.95;;;1.17;;
78581;SDS011;67878;46.242;5.974;2023-09-19T08:23:07;2.55;;;1.25;;
78581;SDS011;67878;46.242;5.974;2023-09-19T08:25:33;6.28;;;1.40;;
78581;SDS011;67878;46.242;5.974;2023-09-19T08:27:59;6.45;;;1.42;;
78581;SDS011;67878;46.242;5.974;2023-09-19T08:30:26;5.30;;;1.60;;
78581;SDS011;67878;46.242;5.974;2023-09-19T08:33:01;2.85;;;1.10;;
78581;SDS011;67878;46.242;5.974;2023-09-19T08:37:54;4.03;;;1.10;;
78581;SDS011;67878;46.242;5.974;2023-09-19T08:40:20;4.53;;;1.00;;
78581;SDS011;67878;46.242;5.974;2023-09-19T08:42:49;5.07;;;1.25;;
78581;SDS011;67878;46.242;5.974;2023-09-19T08:45:19;3.97;;;0.93;;
78581;SDS011;67878;46.242;5.974;2023-09-19T08:47:50;2.88;;;1.25;;
78581;SDS011;67878;46.242;5.974;2023-09-19T08:50:26;3.67;;;1.40;;
78581;SDS011;67878;46.242;5.974;2023-09-19T08:52:56;4.10;;;1.30;;
78581;SDS011;67878;46.242;5.974;2023-09-19T08:55:29;5.75;;;1.50;;
78581;SDS011;67878;46.242;5.974;2023-09-19T08:58:04;4.00;;;1.33;;
78581;SDS011;67878;46.242;5.974;2023-09-19T09:00:38;2.85;;;1.17;;
78581;SDS011;67878;46.242;5.974;2023-09-19T09:03:09;3.08;;;1.20;;
78581;SDS011;67878;46.242;5.974;2023-09-19T09:05:35;2.47;;;1.10;;
78581;SDS011;67878;46.242;5.974;2023-09-19T09:08:01;4.05;;;1.10;;
78581;SDS011;67878;46.242;5.974;2023-09-19T09:10:31;2.08;;;1.20;;
78581;SDS011;67878;46.242;5.974;2023-09-19T09:12:57;1.83;;;1.00;;
78581;SDS011;67878;46.242;5.974;2023-09-19T09:15:23;2.22;;;0.95;;
78581;SDS011;67878;46.242;5.974;2023-09-19T09:17:55;4.20;;;1.50;;
78581;SDS011;67878;46.242;5.974;2023-09-19T09:20:20;4.25;;;1.05;;
78581;SDS011;67878;46.242;5.974;2023-09-19T09:22:53;4.25;;;1.13;;
78581;SDS011;67878;46.242;5.974;2023-09-19T09:25:19;2.72;;;1.23;;
78581;SDS011;67878;46.242;5.974;2023-09-19T09:27:58;2.67;;;1.40;;
78581;SDS011;67878;46.242;5.974;2023-09-19T09:30:33;4.43;;;1.33;;
78581;SDS011;67878;46.242;5.974;2023-09-19T09:33:12;2.35;;;1.50;;
78581;SDS011;67878;46.242;5.974;2023-09-19T09:35:55;3.60;;;1.45;;
78581;SDS011;67878;46.242;5.974;2023-09-19T09:38:23;3.15;;;1.30;;
78581;SDS011;67878;46.242;5.974;2023-09-19T09:40:52;3.33;;;1.20;;
78581;SDS011;67878;46.242;5.974;2023-09-19T09:46:27;3.33;;;1.17;;
78581;SDS011;67878;46.242;5.974;2023-09-19T09:51:32;4.10;;;1.27;;
78581;SDS011;67878;46.242;5.974;2023-09-19T09:57:16;3.03;;;1.02;;
78581;SDS011;67878;46.242;5.974;2023-09-19T09:59:52;2.88;;;1.30;;
78581;SDS011;67878;46.242;5.974;2023-09-19T10:02:30;4.35;;;1.25;;
78581;SDS011;67878;46.242;5.974;2023-09-19T10:05:28;2.85;;;1.10;;
78581;SDS011;67878;46.242;5.974;2023-09-19T10:07:54;6.00;;;1.27;;
78581;SDS011;67878;46.242;5.974;2023-09-19T10:10:30;2.25;;;1.10;;
78581;SDS011;67878;46.242;5.974;2023-09-19T10:13:07;3.08;;;1.10;;
78581;SDS011;67878;46.242;5.974;2023-09-19T10:15:37;4.10;;;1.35;;
78581;SDS011;67878;46.242;5.974;2023-09-19T10:18:06;2.22;;;1.20;;
78581;SDS011;67878;46.242;5.974;2023-09-19T10:20:44;6.35;;;2.10;;
78581;SDS011;67878;46.242;5.974;2023-09-19T10:23:11;23.10;;;12.18;;
78581;SDS011;67878;46.242;5.974;2023-09-19T10:25:40;10.32;;;5.07;;
78581;SDS011;67878;46.242;5.974;2023-09-19T10:28:08;14.07;;;7.10;;
78581;SDS011;67878;46.242;5.974;2023-09-19T10:30:45;17.48;;;8.20;;
78581;SDS011;67878;46.242;5.974;2023-09-19T10:33:16;21.98;;;9.85;;
78581;SDS011;67878;46.242;5.974;2023-09-19T10:35:43;23.77;;;10.43;;
78581;SDS011;67878;46.242;5.974;2023-09-19T10:38:10;35.75;;;12.88;;
78581;SDS011;67878;46.242;5.974;2023-09-19T10:40:37;36.58;;;13.15;;
78581;SDS011;67878;46.242;5.974;2023-09-19T10:43:11;26.30;;;10.57;;
78581;SDS011;67878;46.242;5.974;2023-09-19T10:45:42;25.33;;;10.77;;
78581;SDS011;67878;46.242;5.974;2023-09-19T10:48:09;25.02;;;9.02;;
78581;SDS011;67878;46.242;5.974;2023-09-19T10:50:41;23.58;;;8.77;;
78581;SDS011;67878;46.242;5.974;2023-09-19T10:53:14;17.65;;;7.45;;
78581;SDS011;67878;46.242;5.974;2023-09-19T10:55:42;17.80;;;6.70;;
78581;SDS011;67878;46.242;5.974;2023-09-19T10:58:24;18.70;;;5.95;;
78581;SDS011;67878;46.242;5.974;2023-09-19T11:00:52;15.68;;;6.63;;
78581;SDS011;67878;46.242;5.974;2023-09-19T11:03:18;12.82;;;5.28;;
78581;SDS011;67878;46.242;5.974;2023-09-19T11:06:04;5.90;;;3.00;;
78581;SDS011;67878;46.242;5.974;2023-09-19T11:11:50;6.60;;;2.40;;
78581;SDS011;67878;46.242;5.974;2023-09-19T11:30:31;2.72;;;1.45;;
78581;SDS011;67878;46.242;5.974;2023-09-19T11:33:17;7.25;;;1.70;;
78581;SDS011;67878;46.242;5.974;2023-09-19T11:36:06;7.75;;;2.47;;
78581;SDS011;67878;46.242;5.974;2023-09-19T11:46:29;4.88;;;2.28;;
78581;SDS011;67878;46.242;5.974;2023-09-19T11:49:04;7.80;;;2.50;;
78581;SDS011;67878;46.242;5.974;2023-09-19T11:51:39;3.60;;;2.30;;
78581;SDS011;67878;46.242;5.974;2023-09-19T11:54:10;3.05;;;1.60;;
78581;SDS011;67878;46.242;5.974;2023-09-19T11:56:42;3.55;;;1.77;;
78581;SDS011;67878;46.242;5.974;2023-09-19T11:59:09;4.10;;;1.63;;
78581;SDS011;67878;46.242;5.974;2023-09-19T12:01:35;2.42;;;1.40;;
78581;SDS011;67878;46.242;5.974;2023-09-19T12:04:05;3.33;;;1.50;;
78581;SDS011;67878;46.242;5.974;2023-09-19T12:06:33;2.35;;;1.20;;
78581;SDS011;67878;46.242;5.974;2023-09-19T12:09:00;2.78;;;1.30;;
78581;SDS011;67878;46.242;5.974;2023-09-19T12:11:31;3.90;;;1.42;;
78581;SDS011;67878;46.242;5.974;2023-09-19T12:14:00;4.53;;;1.15;;
78581;SDS011;67878;46.242;5.974;2023-09-19T12:16:27;2.70;;;1.25;;
78581;SDS011;67878;46.242;5.974;2023-09-19T12:18:56;2.42;;;1.17;;
78581;SDS011;67878;46.242;5.974;2023-09-19T12:21:29;2.65;;;1.20;;
78581;SDS011;67878;46.242;5.974;2023-09-19T12:24:11;2.90;;;1.30;;
78581;SDS011;67878;46.242;5.974;2023-09-19T12:26:43;2.65;;;1.20;;
78581;SDS011;67878;46.242;5.974;2023-09-19T12:31:54;1.83;;;1.08;;
78581;SDS011;67878;46.242;5.974;2023-09-19T12:34:26;1.80;;;1.08;;
78581;SDS011;67878;46.242;5.974;2023-09-19T12:37:05;2.13;;;0.95;;
78581;SDS011;67878;46.242;5.974;2023-09-19T12:39:43;2.30;;;1.30;;
78581;SDS011;67878;46.242;5.974;2023-09-19T12:42:18;2.10;;;1.02;;
78581;SDS011;67878;46.242;5.974;2023-09-19T12:44:48;1.80;;;1.08;;
78581;SDS011;67878;46.242;5.974;2023-09-19T12:47:20;2.65;;;1.00;;
78581;SDS011;67878;46.242;5.974;2023-09-19T12:52:50;1.42;;;1.10;;
78581;SDS011;67878;46.242;5.974;2023-09-19T13:00:37;4.30;;;1.20;;
78581;SDS011;67878;46.242;5.974;2023-09-19T13:05:59;3.03;;;1.38;;
78581;SDS011;67878;46.242;5.974;2023-09-19T13:11:12;2.33;;;1.00;;
78581;SDS011;67878;46.242;5.974;2023-09-19T13:16:04;1.83;;;1.00;;
78581;SDS011;67878;46.242;5.974;2023-09-19T13:18:43;1.60;;;0.98;;
78581;SDS011;67878;46.242;5.974;2023-09-19T13:21:11;5.43;;;1.10;;
78581;SDS011;67878;46.242;5.974;2023-09-19T13:23:41;1.25;;;0.90;;
78581;SDS011;67878;46.242;5.974;2023-09-19T13:26:08;1.60;;;0.70;;
78581;SDS011;67878;46.242;5.974;2023-09-19T13:28:34;1.23;;;0.90;;
78581;SDS011;67878;46.242;5.974;2023-09-19T13:31:00;1.80;;;0.90;;
78581;SDS011;67878;46.242;5.974;2023-09-19T13:33:26;2.92;;;1.05;;
78581;SDS011;67878;46.242;5.974;2023-09-19T13:35:51;3.03;;;1.10;;
78581;SDS011;67878;46.242;5.974;2023-09-19T13:38:18;2.63;;;0.98;;
78581;SDS011;67878;46.242;5.974;2023-09-19T13:40:47;1.30;;;0.85;;
78581;SDS011;67878;46.242;5.974;2023-09-19T13:43:13;1.85;;;0.80;;
78581;SDS011;67878;46.242;5.974;2023-09-19T13:45:39;2.45;;;0.90;;
78581;SDS011;67878;46.242;5.974;2023-09-19T13:48:07;1.73;;;0.70;;
78581;SDS011;67878;46.242;5.974;2023-09-19T13:50:33;1.55;;;0.90;;
78581;SDS011;67878;46.242;5.974;2023-09-19T13:53:01;1.85;;;0.77;;
78581;SDS011;67878;46.242;5.974;2023-09-19T13:55:27;1.45;;;0.70;;
78581;SDS011;67878;46.242;5.974;2023-09-19T13:57:52;1.45;;;0.80;;
78581;SDS011;67878;46.242;5.974;2023-09-19T14:00:24;2.35;;;0.80;;
78581;SDS011;67878;46.242;5.974;2023-09-19T14:02:50;1.60;;;0.70;;
78581;SDS011;67878;46.242;5.974;2023-09-19T14:05:16;1.80;;;0.90;;
78581;SDS011;67878;46.242;5.974;2023-09-19T14:07:42;1.58;;;0.80;;
78581;SDS011;67878;46.242;5.974;2023-09-19T14:10:08;2.15;;;0.80;;
78581;SDS011;67878;46.242;5.974;2023-09-19T14:12:35;0.88;;;0.60;;
78581;SDS011;67878;46.242;5.974;2023-09-19T14:15:08;2.60;;;0.90;;
78581;SDS011;67878;46.242;5.974;2023-09-19T14:17:34;2.38;;;1.00;;
78581;SDS011;67878;46.242;5.974;2023-09-19T14:19:59;2.72;;;0.95;;
78581;SDS011;67878;46.242;5.974;2023-09-19T14:22:25;3.22;;;1.15;;
78581;SDS011;67878;46.242;5.974;2023-09-19T14:24:50;4.50;;;1.00;;
78581;SDS011;67878;46.242;5.974;2023-09-19T14:27:16;2.33;;;0.88;;
78581;SDS011;67878;46.242;5.974;2023-09-19T14:29:42;1.10;;;0.98;;
78581;SDS011;67878;46.242;5.974;2023-09-19T14:32:07;5.75;;;1.00;;
78581;SDS011;67878;46.242;5.974;2023-09-19T14:34:33;2.42;;;0.90;;
78581;SDS011;67878;46.242;5.974;2023-09-19T14:36:58;2.63;;;1.00;;
78581;SDS011;67878;46.242;5.974;2023-09-19T14:39:23;3.22;;;0.95;;
78581;SDS011;67878;46.242;5.974;2023-09-19T14:41:50;2.33;;;0.80;;
78581;SDS011;67878;46.242;5.974;2023-09-19T14:44:16;3.10;;;1.00;;
78581;SDS011;67878;46.242;5.974;2023-09-19T14:46:41;3.72;;;1.13;;
78581;SDS011;67878;46.242;5.974;2023-09-19T14:49:09;1.85;;;0.90;;
78581;SDS011;67878;46.242;5.974;2023-09-19T14:51:35;2.05;;;0.80;;
78581;SDS011;67878;46.242;5.974;2023-09-19T14:54:00;2.90;;;0.98;;
78581;SDS011;67878;46.242;5.974;2023-09-19T14:56:27;2.45;;;0.80;;
78581;SDS011;67878;46.242;5.974;2023-09-19T14:58:55;1.17;;;0.80;;
78581;SDS011;67878;46.242;5.974;2023-09-19T15:01:20;1.70;;;0.77;;
78581;SDS011;67878;46.242;5.974;2023-09-19T15:03:47;1.80;;;0.70;;
78581;SDS011;67878;46.242;5.974;2023-09-19T15:06:14;0.88;;;0.77;;
78581;SDS011;67878;46.242;5.974;2023-09-19T15:08:40;2.55;;;0.70;;
78581;SDS011;67878;46.242;5.974;2023-09-19T15:11:08;1.73;;;0.80;;
78581;SDS011;67878;46.242;5.974;2023-09-19T15:13:35;1.20;;;0.80;;
78581;SDS011;67878;46.242;5.974;2023-09-19T15:16:02;1.63;;;0.80;;
78581;SDS011;67878;46.242;5.974;2023-09-19T15:18:29;2.22;;;0.90;;
78581;SDS011;67878;46.242;5.974;2023-09-19T15:20:56;2.00;;;0.90;;
78581;SDS011;67878;46.242;5.974;2023-09-19T15:23:25;0.77;;;0.57;;
78581;SDS011;67878;46.242;5.974;2023-09-19T15:25:51;0.75;;;0.63;;
78581;SDS011;67878;46.242;5.974;2023-09-19T15:28:16;1.73;;;0.80;;
78581;SDS011;67878;46.242;5.974;2023-09-19T15:30:42;1.75;;;0.77;;
78581;SDS011;67878;46.242;5.974;2023-09-19T15:33:08;1.42;;;0.80;;
78581;SDS011;67878;46.242;5.974;2023-09-19T15:35:34;1.23;;;0.80;;
78581;SDS011;67878;46.242;5.974;2023-09-19T15:38:01;1.17;;;0.95;;
78581;SDS011;67878;46.242;5.974;2023-09-19T15:40:26;1.13;;;0.65;;
78581;SDS011;67878;46.242;5.974;2023-09-19T15:42:52;2.15;;;1.00;;
78581;SDS011;67878;46.242;5.974;2023-09-19T15:45:19;1.75;;;1.10;;
78581;SDS011;67878;46.242;5.974;2023-09-19T15:47:45;2.50;;;0.75;;
78581;SDS011;67878;46.242;5.974;2023-09-19T15:50:11;1.10;;;0.90;;
78581;SDS011;67878;46.242;5.974;2023-09-19T15:52:39;1.67;;;0.85;;
78581;SDS011;67878;46.242;5.974;2023-09-19T15:55:05;1.58;;;0.90;;
78581;SDS011;67878;46.242;5.974;2023-09-19T15:57:34;1.75;;;0.90;;
78581;SDS011;67878;46.242;5.974;2023-09-19T16:00:01;1.92;;;1.10;;
78581;SDS011;67878;46.242;5.974;2023-09-19T16:02:29;3.75;;;0.95;;
78581;SDS011;67878;46.242;5.974;2023-09-19T16:04:55;2.45;;;0.90;;
78581;SDS011;67878;46.242;5.974;2023-09-19T16:07:20;1.70;;;0.90;;
78581;SDS011;67878;46.242;5.974;2023-09-19T16:09:46;2.38;;;0.80;;
78581;SDS011;67878;46.242;5.974;2023-09-19T16:12:11;1.25;;;0.73;;
78581;SDS011;67878;46.242;5.974;2023-09-19T16:14:39;3.53;;;0.93;;